Tekonsha, Michigan
Current Conditions -  °F | °C
As of 5:33 AM on Saturday 25 Oct 2014 (Local Time) from KRMY Reporting Station
Overcast Overcast  
Wind Chill: 52°   Ceiling: 4000
Heat Index: 52°   Visibility: 10mi
Dew Point: 48°   Wind: 7mph
Humidity: 87%   Direction: 220°SW
Pressure: 29.86"   Gusts: NA
Location:  42.09°N, 84.99°W
Report Text: KRMY 250933Z AUTO 22006KT 10SM OVC040 11/09 A2986 RMK AO2 T01120091
Loading
Personal Weather Stations






























Interactive Weather Map
Tropical Storm Tracking
New forecast layout! Learn more

10-Day Weather Forecast

Advertisements
Track Severe Weather on mobile